sensor_id;sensor_type;location;lat;lon;timestamp;pressure;altitude;pressure_sealevel;temperature;humidity
17260;BME280;8746;49.230;9.220;2024-03-02T00:00:00;98737.34;;;4.25;100.00
17260;BME280;8746;49.230;9.220;2024-03-02T00:02:25;98742.66;;;4.22;100.00
17260;BME280;8746;49.230;9.220;2024-03-02T00:04:51;98746.16;;;4.22;100.00
17260;BME280;8746;49.230;9.220;2024-03-02T00:07:17;98740.22;;;4.17;100.00
17260;BME280;8746;49.230;9.220;2024-03-02T00:09:42;98748.78;;;4.21;100.00
17260;BME280;8746;49.230;9.220;2024-03-02T00:12:08;98743.78;;;4.14;100.00
17260;BME280;8746;49.230;9.220;2024-03-02T00:14:33;98738.63;;;4.13;100.00
17260;BME280;8746;49.230;9.220;2024-03-02T00:16:59;98742.13;;;4.12;100.00
17260;BME280;8746;49.230;9.220;2024-03-02T00:19:24;98739.50;;;4.12;100.00
17260;BME280;8746;49.230;9.220;2024-03-02T00:21:50;98737.72;;;4.14;100.00
17260;BME280;8746;49.230;9.220;2024-03-02T00:24:31;98740.53;;;4.08;100.00
17260;BME280;8746;49.230;9.220;2024-03-02T00:26:56;98739.66;;;4.07;100.00
17260;BME280;8746;49.230;9.220;2024-03-02T00:29:21;98736.28;;;4.04;100.00
17260;BME280;8746;49.230;9.220;2024-03-02T00:31:47;98738.91;;;4.04;100.00
17260;BME280;8746;49.230;9.220;2024-03-02T00:34:14;98742.44;;;4.03;100.00
17260;BME280;8746;49.230;9.220;2024-03-02T00:36:41;98749.53;;;3.97;100.00
17260;BME280;8746;49.230;9.220;2024-03-02T00:39:07;98745.25;;;3.96;100.00
17260;BME280;8746;49.230;9.220;2024-03-02T00:41:33;98752.16;;;3.97;100.00
17260;BME280;8746;49.230;9.220;2024-03-02T00:44:02;98746.19;;;3.94;100.00
17260;BME280;8746;49.230;9.220;2024-03-02T00:46:35;98742.81;;;3.90;100.00
17260;BME280;8746;49.230;9.220;2024-03-02T00:49:03;98735.88;;;3.91;100.00
17260;BME280;8746;49.230;9.220;2024-03-02T00:51:33;98738.41;;;3.92;100.00
17260;BME280;8746;49.230;9.220;2024-03-02T00:54:04;98731.41;;;3.94;100.00
17260;BME280;8746;49.230;9.220;2024-03-02T00:56:30;98743.53;;;3.95;100.00
17260;BME280;8746;49.230;9.220;2024-03-02T00:58:56;98730.59;;;3.92;100.00
17260;BME280;8746;49.230;9.220;2024-03-02T01:01:21;98725.69;;;3.83;100.00
17260;BME280;8746;49.230;9.220;2024-03-02T01:03:48;98721.50;;;3.77;100.00
17260;BME280;8746;49.230;9.220;2024-03-02T01:06:14;98723.31;;;3.75;100.00
17260;BME280;8746;49.230;9.220;2024-03-02T01:08:40;98728.47;;;3.77;100.00
17260;BME280;8746;49.230;9.220;2024-03-02T01:11:05;98728.28;;;3.83;100.00
17260;BME280;8746;49.230;9.220;2024-03-02T01:13:31;98728.38;;;3.80;100.00
17260;BME280;8746;49.230;9.220;2024-03-02T01:15:57;98723.44;;;3.71;100.00
17260;BME280;8746;49.230;9.220;2024-03-02T01:18:22;98729.59;;;3.69;100.00
17260;BME280;8746;49.230;9.220;2024-03-02T01:20:49;98724.38;;;3.69;100.00
17260;BME280;8746;49.230;9.220;2024-03-02T01:23:17;98729.53;;;3.71;100.00
17260;BME280;8746;49.230;9.220;2024-03-02T01:25:42;98724.94;;;3.79;100.00
17260;BME280;8746;49.230;9.220;2024-03-02T01:28:07;98721.03;;;3.91;100.00
17260;BME280;8746;49.230;9.220;2024-03-02T01:30:33;98723.72;;;3.90;100.00
17260;BME280;8746;49.230;9.220;2024-03-02T01:32:59;98715.41;;;3.77;100.00
17260;BME280;8746;49.230;9.220;2024-03-02T01:35:25;98722.47;;;3.75;100.00
17260;BME280;8746;49.230;9.220;2024-03-02T01:37:51;98730.34;;;3.73;100.00
17260;BME280;8746;49.230;9.220;2024-03-02T01:40:17;98737.56;;;3.65;100.00
17260;BME280;8746;49.230;9.220;2024-03-02T01:42:43;98744.50;;;3.64;100.00
17260;BME280;8746;49.230;9.220;2024-03-02T01:45:08;98736.69;;;3.64;100.00
17260;BME280;8746;49.230;9.220;2024-03-02T01:47:34;98739.22;;;3.67;100.00
17260;BME280;8746;49.230;9.220;2024-03-02T01:50:00;98739.28;;;3.64;100.00
17260;BME280;8746;49.230;9.220;2024-03-02T01:52:27;98734.81;;;3.68;100.00
17260;BME280;8746;49.230;9.220;2024-03-02T01:54:52;98732.47;;;3.60;100.00
17260;BME280;8746;49.230;9.220;2024-03-02T01:57:18;98734.25;;;3.60;100.00
17260;BME280;8746;49.230;9.220;2024-03-02T01:59:44;98728.91;;;3.34;100.00
17260;BME280;8746;49.230;9.220;2024-03-02T02:02:09;98724.47;;;3.38;100.00
17260;BME280;8746;49.230;9.220;2024-03-02T02:04:35;98718.69;;;3.28;100.00
17260;BME280;8746;49.230;9.220;2024-03-02T02:07:00;98721.53;;;3.19;100.00
17260;BME280;8746;49.230;9.220;2024-03-02T02:09:26;98717.16;;;3.21;100.00
17260;BME280;8746;49.230;9.220;2024-03-02T02:11:51;98712.88;;;3.18;100.00
17260;BME280;8746;49.230;9.220;2024-03-02T02:14:17;98713.03;;;3.14;100.00
17260;BME280;8746;49.230;9.220;2024-03-02T02:16:42;98716.38;;;3.17;100.00
17260;BME280;8746;49.230;9.220;2024-03-02T02:19:08;98717.03;;;3.24;100.00
17260;BME280;8746;49.230;9.220;2024-03-02T02:21:34;98718.69;;;3.28;100.00
17260;BME280;8746;49.230;9.220;2024-03-02T02:23:59;98714.28;;;3.30;100.00
17260;BME280;8746;49.230;9.220;2024-03-02T02:26:26;98711.56;;;3.33;100.00
17260;BME280;8746;49.230;9.220;2024-03-02T02:28:51;98708.50;;;3.19;100.00
17260;BME280;8746;49.230;9.220;2024-03-02T02:31:17;98712.19;;;3.12;100.00
17260;BME280;8746;49.230;9.220;2024-03-02T02:33:42;98704.38;;;3.12;100.00
17260;BME280;8746;49.230;9.220;2024-03-02T02:36:08;98700.63;;;3.22;100.00
17260;BME280;8746;49.230;9.220;2024-03-02T02:38:38;98704.06;;;3.23;100.00
17260;BME280;8746;49.230;9.220;2024-03-02T02:41:04;98697.47;;;3.11;100.00
17260;BME280;8746;49.230;9.220;2024-03-02T02:43:29;98702.06;;;3.02;100.00
17260;BME280;8746;49.230;9.220;2024-03-02T02:45:57;98693.53;;;2.97;100.00
17260;BME280;8746;49.230;9.220;2024-03-02T02:48:22;98691.91;;;2.93;100.00
17260;BME280;8746;49.230;9.220;2024-03-02T02:50:48;98688.59;;;2.88;100.00
17260;BME280;8746;49.230;9.220;2024-03-02T02:53:13;98676.44;;;2.87;100.00
17260;BME280;8746;49.230;9.220;2024-03-02T02:55:41;98672.56;;;2.72;100.00
17260;BME280;8746;49.230;9.220;2024-03-02T02:58:09;98676.22;;;2.65;100.00
17260;BME280;8746;49.230;9.220;2024-03-02T03:00:34;98683.91;;;2.69;100.00
17260;BME280;8746;49.230;9.220;2024-03-02T03:02:59;98688.28;;;2.67;100.00
17260;BME280;8746;49.230;9.220;2024-03-02T03:05:25;98687.59;;;2.62;100.00
17260;BME280;8746;49.230;9.220;2024-03-02T03:07:50;98689.25;;;2.65;100.00
17260;BME280;8746;49.230;9.220;2024-03-02T03:10:16;98691.91;;;2.62;100.00
17260;BME280;8746;49.230;9.220;2024-03-02T03:12:42;98685.94;;;2.58;100.00
17260;BME280;8746;49.230;9.220;2024-03-02T03:15:09;98686.88;;;2.55;100.00
17260;BME280;8746;49.230;9.220;2024-03-02T03:17:34;98690.34;;;2.56;100.00
17260;BME280;8746;49.230;9.220;2024-03-02T03:20:01;98692.03;;;2.59;100.00
17260;BME280;8746;49.230;9.220;2024-03-02T03:22:27;98692.25;;;2.51;100.00
17260;BME280;8746;49.230;9.220;2024-03-02T03:24:53;98699.06;;;2.55;100.00
17260;BME280;8746;49.230;9.220;2024-03-02T03:27:18;98699.06;;;2.55;100.00
17260;BME280;8746;49.230;9.220;2024-03-02T03:29:44;98698.50;;;2.44;100.00
17260;BME280;8746;49.230;9.220;2024-03-02T03:32:10;98696.06;;;2.37;100.00
17260;BME280;8746;49.230;9.220;2024-03-02T03:34:35;98697.91;;;2.34;100.00
17260;BME280;8746;49.230;9.220;2024-03-02T03:37:01;98705.81;;;2.29;100.00
17260;BME280;8746;49.230;9.220;2024-03-02T03:39:27;98696.16;;;2.34;100.00
17260;BME280;8746;49.230;9.220;2024-03-02T03:41:53;98693.47;;;2.37;100.00
17260;BME280;8746;49.230;9.220;2024-03-02T03:44:18;98697.63;;;2.43;100.00
17260;BME280;8746;49.230;9.220;2024-03-02T03:46:43;98699.44;;;2.41;100.00
17260;BME280;8746;49.230;9.220;2024-03-02T03:49:08;98698.56;;;2.40;100.00
17260;BME280;8746;49.230;9.220;2024-03-02T03:51:34;98691.06;;;2.30;100.00
17260;BME280;8746;49.230;9.220;2024-03-02T03:54:00;98692.22;;;2.19;100.00
17260;BME280;8746;49.230;9.220;2024-03-02T03:56:26;98700.94;;;2.17;100.00
17260;BME280;8746;49.230;9.220;2024-03-02T03:58:51;98690.78;;;2.07;100.00
17260;BME280;8746;49.230;9.220;2024-03-02T04:01:17;98697.91;;;1.99;100.00
17260;BME280;8746;49.230;9.220;2024-03-02T04:03:43;98688.38;;;2.00;100.00
17260;BME280;8746;49.230;9.220;2024-03-02T04:06:08;98696.28;;;1.95;100.00
17260;BME280;8746;49.230;9.220;2024-03-02T04:08:33;98700.66;;;1.95;100.00
17260;BME280;8746;49.230;9.220;2024-03-02T04:10:59;98696.19;;;2.00;100.00
17260;BME280;8746;49.230;9.220;2024-03-02T04:13:24;98698.53;;;2.09;100.00
17260;BME280;8746;49.230;9.220;2024-03-02T04:15:49;98700.41;;;2.04;100.00
17260;BME280;8746;49.230;9.220;2024-03-02T04:18:14;98694.34;;;2.03;100.00
17260;BME280;8746;49.230;9.220;2024-03-02T04:20:40;98703.81;;;2.06;100.00
17260;BME280;8746;49.230;9.220;2024-03-02T04:23:05;98698.88;;;1.95;100.00
17260;BME280;8746;49.230;9.220;2024-03-02T04:25:30;98701.66;;;1.89;100.00
17260;BME280;8746;49.230;9.220;2024-03-02T04:27:56;98701.06;;;1.78;100.00
17260;BME280;8746;49.230;9.220;2024-03-02T04:30:21;98698.53;;;1.74;100.00
17260;BME280;8746;49.230;9.220;2024-03-02T04:32:46;98705.50;;;1.72;100.00
17260;BME280;8746;49.230;9.220;2024-03-02T04:35:12;98703.88;;;1.68;100.00
17260;BME280;8746;49.230;9.220;2024-03-02T04:37:38;98709.00;;;1.71;100.00
17260;BME280;8746;49.230;9.220;2024-03-02T04:40:04;98705.72;;;1.63;100.00
17260;BME280;8746;49.230;9.220;2024-03-02T04:42:33;98700.53;;;1.63;100.00
17260;BME280;8746;49.230;9.220;2024-03-02T04:44:59;98698.75;;;1.65;100.00
17260;BME280;8746;49.230;9.220;2024-03-02T04:47:24;98702.25;;;1.63;100.00
17260;BME280;8746;49.230;9.220;2024-03-02T04:49:49;98696.28;;;1.59;100.00
17260;BME280;8746;49.230;9.220;2024-03-02T04:52:16;98704.16;;;1.56;100.00
17260;BME280;8746;49.230;9.220;2024-03-02T04:54:41;98698.09;;;1.55;100.00
17260;BME280;8746;49.230;9.220;2024-03-02T04:57:25;98697.09;;;1.61;100.00
17260;BME280;8746;49.230;9.220;2024-03-02T04:59:50;98697.09;;;1.61;100.00
17260;BME280;8746;49.230;9.220;2024-03-02T05:02:15;98703.44;;;1.51;100.00
17260;BME280;8746;49.230;9.220;2024-03-02T05:04:41;98699.22;;;1.45;100.00
17260;BME280;8746;49.230;9.220;2024-03-02T05:07:07;98699.13;;;1.50;100.00
17260;BME280;8746;49.230;9.220;2024-03-02T05:09:32;98706.72;;;1.57;100.00
17260;BME280;8746;49.230;9.220;2024-03-02T05:11:58;98698.72;;;1.67;100.00
17260;BME280;8746;49.230;9.220;2024-03-02T05:14:29;98693.56;;;1.65;100.00
17260;BME280;8746;49.230;9.220;2024-03-02T05:16:54;98691.81;;;1.66;100.00
17260;BME280;8746;49.230;9.220;2024-03-02T05:19:19;98699.81;;;1.58;100.00
17260;BME280;8746;49.230;9.220;2024-03-02T05:21:44;98705.78;;;1.60;100.00
17260;BME280;8746;49.230;9.220;2024-03-02T05:24:10;98705.88;;;1.57;100.00
17260;BME280;8746;49.230;9.220;2024-03-02T05:26:35;98713.63;;;1.58;100.00
17260;BME280;8746;49.230;9.220;2024-03-02T05:29:01;98707.00;;;1.45;100.00
17260;BME280;8746;49.230;9.220;2024-03-02T05:31:26;98710.59;;;1.41;100.00
17260;BME280;8746;49.230;9.220;2024-03-02T05:33:51;98712.41;;;1.36;100.00
17260;BME280;8746;49.230;9.220;2024-03-02T05:36:17;98713.28;;;1.36;100.00
17260;BME280;8746;49.230;9.220;2024-03-02T05:38:42;98713.13;;;1.42;100.00
17260;BME280;8746;49.230;9.220;2024-03-02T05:41:08;98706.81;;;1.54;100.00
17260;BME280;8746;49.230;9.220;2024-03-02T05:43:33;98707.75;;;1.50;100.00
17260;BME280;8746;49.230;9.220;2024-03-02T05:45:58;98701.75;;;1.48;100.00
17260;BME280;8746;49.230;9.220;2024-03-02T05:48:24;98715.66;;;1.46;100.00
17260;BME280;8746;49.230;9.220;2024-03-02T05:50:49;98720.91;;;1.44;100.00
17260;BME280;8746;49.230;9.220;2024-03-02T05:53:14;98714.91;;;1.40;100.00
17260;BME280;8746;49.230;9.220;2024-03-02T05:55:40;98716.75;;;1.35;100.00
17260;BME280;8746;49.230;9.220;2024-03-02T05:58:06;98720.19;;;1.37;100.00
17260;BME280;8746;49.230;9.220;2024-03-02T06:00:31;98715.97;;;1.32;100.00
17260;BME280;8746;49.230;9.220;2024-03-02T06:02:57;98714.06;;;1.40;100.00
17260;BME280;8746;49.230;9.220;2024-03-02T06:05:22;98722.03;;;1.32;100.00
17260;BME280;8746;49.230;9.220;2024-03-02T06:07:48;98734.59;;;1.11;100.00
17260;BME280;8746;49.230;9.220;2024-03-02T06:10:13;98734.91;;;0.96;100.00
17260;BME280;8746;49.230;9.220;2024-03-02T06:12:39;98741.16;;;0.87;100.00
17260;BME280;8746;49.230;9.220;2024-03-02T06:15:05;98745.25;;;0.99;100.00
17260;BME280;8746;49.230;9.220;2024-03-02T06:17:30;98740.59;;;1.15;100.00
17260;BME280;8746;49.230;9.220;2024-03-02T06:19:55;98746.41;;;1.26;100.00
17260;BME280;8746;49.230;9.220;2024-03-02T06:22:21;98756.75;;;1.28;100.00
17260;BME280;8746;49.230;9.220;2024-03-02T06:24:48;98754.78;;;1.39;100.00
17260;BME280;8746;49.230;9.220;2024-03-02T06:27:13;98753.97;;;1.37;100.00
17260;BME280;8746;49.230;9.220;2024-03-02T06:29:39;98760.75;;;1.44;100.00
17260;BME280;8746;49.230;9.220;2024-03-02T06:32:04;98753.78;;;1.45;100.00
17260;BME280;8746;49.230;9.220;2024-03-02T06:34:29;98763.22;;;1.51;100.00
17260;BME280;8746;49.230;9.220;2024-03-02T06:36:55;98749.31;;;1.52;100.00
17260;BME280;8746;49.230;9.220;2024-03-02T06:39:20;98751.06;;;1.51;100.00
17260;BME280;8746;49.230;9.220;2024-03-02T06:41:46;98741.44;;;1.55;100.00
17260;BME280;8746;49.230;9.220;2024-03-02T06:44:12;98738.69;;;1.61;100.00
17260;BME280;8746;49.230;9.220;2024-03-02T06:46:38;98736.38;;;1.49;100.00
17260;BME280;8746;49.230;9.220;2024-03-02T06:49:04;98729.56;;;1.44;100.00
17260;BME280;8746;49.230;9.220;2024-03-02T06:51:29;98743.16;;;1.56;100.00
17260;BME280;8746;49.230;9.220;2024-03-02T06:53:55;98744.50;;;1.72;100.00
17260;BME280;8746;49.230;9.220;2024-03-02T06:56:20;98748.91;;;1.70;100.00
17260;BME280;8746;49.230;9.220;2024-03-02T06:58:46;98751.25;;;1.81;100.00
17260;BME280;8746;49.230;9.220;2024-03-02T07:01:12;98745.66;;;1.97;100.00
17260;BME280;8746;49.230;9.220;2024-03-02T07:03:37;98749.72;;;2.08;100.00
17260;BME280;8746;49.230;9.220;2024-03-02T07:06:04;98753.72;;;2.22;100.00
17260;BME280;8746;49.230;9.220;2024-03-02T07:08:29;98761.22;;;2.34;100.00
17260;BME280;8746;49.230;9.220;2024-03-02T07:10:55;98760.81;;;2.50;100.00
17260;BME280;8746;49.230;9.220;2024-03-02T07:13:21;98754.69;;;2.52;100.00
17260;BME280;8746;49.230;9.220;2024-03-02T07:15:46;98763.16;;;2.59;100.00
17260;BME280;8746;49.230;9.220;2024-03-02T07:18:31;98753.41;;;2.67;100.00
17260;BME280;8746;49.230;9.220;2024-03-02T07:20:58;98753.19;;;2.75;100.00
17260;BME280;8746;49.230;9.220;2024-03-02T07:23:26;98758.03;;;2.89;100.00
17260;BME280;8746;49.230;9.220;2024-03-02T07:25:55;98758.03;;;2.89;100.00
17260;BME280;8746;49.230;9.220;2024-03-02T07:28:25;98744.53;;;3.06;100.00
17260;BME280;8746;49.230;9.220;2024-03-02T07:31:03;98753.09;;;3.10;100.00
17260;BME280;8746;49.230;9.220;2024-03-02T07:33:30;98755.53;;;3.16;100.00
17260;BME280;8746;49.230;9.220;2024-03-02T07:35:59;98745.00;;;3.19;100.00
17260;BME280;8746;49.230;9.220;2024-03-02T07:38:26;98745.59;;;3.29;100.00
17260;BME280;8746;49.230;9.220;2024-03-02T07:40:52;98756.78;;;3.32;100.00
17260;BME280;8746;49.230;9.220;2024-03-02T07:43:20;98753.50;;;3.26;100.00
17260;BME280;8746;49.230;9.220;2024-03-02T07:45:46;98755.81;;;3.35;100.00
17260;BME280;8746;49.230;9.220;2024-03-02T07:48:12;98754.81;;;3.41;100.00
17260;BME280;8746;49.230;9.220;2024-03-02T07:50:38;98754.59;;;3.47;100.00
17260;BME280;8746;49.230;9.220;2024-03-02T07:53:05;98757.72;;;3.58;100.00
17260;BME280;8746;49.230;9.220;2024-03-02T07:55:31;98760.22;;;3.63;100.00
17260;BME280;8746;49.230;9.220;2024-03-02T07:57:57;98760.88;;;3.69;100.00
17260;BME280;8746;49.230;9.220;2024-03-02T08:00:23;98764.91;;;3.80;100.00
17260;BME280;8746;49.230;9.220;2024-03-02T08:02:50;98768.16;;;3.87;100.00
17260;BME280;8746;49.230;9.220;2024-03-02T08:05:16;98767.94;;;3.94;100.00
17260;BME280;8746;49.230;9.220;2024-03-02T08:07:43;98772.06;;;4.01;100.00
17260;BME280;8746;49.230;9.220;2024-03-02T08:10:09;98766.84;;;4.01;100.00
17260;BME280;8746;49.230;9.220;2024-03-02T08:12:34;98766.91;;;3.98;100.00
17260;BME280;8746;49.230;9.220;2024-03-02T08:15:00;98769.59;;;3.97;100.00
17260;BME280;8746;49.230;9.220;2024-03-02T08:17:26;98766.22;;;3.93;100.00
17260;BME280;8746;49.230;9.220;2024-03-02T08:19:51;98757.63;;;3.90;100.00
17260;BME280;8746;49.230;9.220;2024-03-02T08:22:17;98768.13;;;3.88;100.00
17260;BME280;8746;49.230;9.220;2024-03-02T08:24:42;98764.28;;;3.72;100.00
17260;BME280;8746;49.230;9.220;2024-03-02T08:27:08;98760.38;;;3.85;100.00
17260;BME280;8746;49.230;9.220;2024-03-02T08:29:34;98752.50;;;3.87;100.00
17260;BME280;8746;49.230;9.220;2024-03-02T08:32:00;98755.84;;;3.92;100.00
17260;BME280;8746;49.230;9.220;2024-03-02T08:34:25;98750.41;;;3.98;100.00
17260;BME280;8746;49.230;9.220;2024-03-02T08:36:51;98753.66;;;4.05;100.00
17260;BME280;8746;49.230;9.220;2024-03-02T08:39:16;98757.94;;;4.07;100.00
17260;BME280;8746;49.230;9.220;2024-03-02T08:41:44;98767.25;;;4.16;100.00
17260;BME280;8746;49.230;9.220;2024-03-02T08:44:10;98764.25;;;4.27;100.00
17260;BME280;8746;49.230;9.220;2024-03-02T08:46:35;98767.06;;;4.21;100.00
17260;BME280;8746;49.230;9.220;2024-03-02T08:49:01;98766.09;;;4.23;100.00
17260;BME280;8746;49.230;9.220;2024-03-02T08:51:27;98766.84;;;4.27;100.00
17260;BME280;8746;49.230;9.220;2024-03-02T08:53:52;98760.59;;;4.32;100.00
17260;BME280;8746;49.230;9.220;2024-03-02T08:56:17;98765.59;;;4.39;100.00
17260;BME280;8746;49.230;9.220;2024-03-02T08:58:43;98759.31;;;4.44;100.00
17260;BME280;8746;49.230;9.220;2024-03-02T09:01:10;98761.00;;;4.71;100.00
17260;BME280;8746;49.230;9.220;2024-03-02T09:03:35;98764.69;;;4.90;100.00
17260;BME280;8746;49.230;9.220;2024-03-02T09:06:02;98762.28;;;4.84;100.00
17260;BME280;8746;49.230;9.220;2024-03-02T09:08:27;98758.69;;;4.88;100.00
17260;BME280;8746;49.230;9.220;2024-03-02T09:10:54;98757.19;;;5.05;100.00
17260;BME280;8746;49.230;9.220;2024-03-02T09:13:20;98751.28;;;5.23;100.00
17260;BME280;8746;49.230;9.220;2024-03-02T09:15:45;98748.94;;;5.39;100.00
17260;BME280;8746;49.230;9.220;2024-03-02T09:18:11;98753.59;;;5.77;100.00
17260;BME280;8746;49.230;9.220;2024-03-02T09:20:36;98744.47;;;5.87;100.00
17260;BME280;8746;49.230;9.220;2024-03-02T09:23:01;98742.78;;;6.08;100.00
17260;BME280;8746;49.230;9.220;2024-03-02T09:25:27;98743.72;;;6.28;100.00
17260;BME280;8746;49.230;9.220;2024-03-02T09:27:52;98731.66;;;6.45;100.00
17260;BME280;8746;49.230;9.220;2024-03-02T09:30:17;98735.78;;;6.50;100.00
17260;BME280;8746;49.230;9.220;2024-03-02T09:32:43;98735.66;;;6.53;100.00
17260;BME280;8746;49.230;9.220;2024-03-02T09:35:08;98738.50;;;6.68;100.00
17260;BME280;8746;49.230;9.220;2024-03-02T09:37:34;98734.84;;;6.93;100.00
17260;BME280;8746;49.230;9.220;2024-03-02T09:40:00;98730.88;;;7.03;100.00
17260;BME280;8746;49.230;9.220;2024-03-02T09:42:26;98727.78;;;7.33;100.00
17260;BME280;8746;49.230;9.220;2024-03-02T09:44:52;98733.84;;;7.52;100.00
17260;BME280;8746;49.230;9.220;2024-03-02T09:47:17;98725.59;;;7.79;100.00
17260;BME280;8746;49.230;9.220;2024-03-02T09:49:43;98723.59;;;7.84;100.00
17260;BME280;8746;49.230;9.220;2024-03-02T09:52:10;98727.16;;;8.01;100.00
17260;BME280;8746;49.230;9.220;2024-03-02T09:54:36;98729.72;;;8.20;100.00
17260;BME280;8746;49.230;9.220;2024-03-02T09:57:02;98729.44;;;8.61;100.00
17260;BME280;8746;49.230;9.220;2024-03-02T09:59:28;98728.66;;;8.93;100.00
17260;BME280;8746;49.230;9.220;2024-03-02T10:02:03;98724.44;;;9.06;100.00
17260;BME280;8746;49.230;9.220;2024-03-02T10:04:30;98720.56;;;9.61;100.00
17260;BME280;8746;49.230;9.220;2024-03-02T10:07:16;98714.53;;;10.22;100.00
17260;BME280;8746;49.230;9.220;2024-03-02T10:09:43;98714.47;;;10.68;100.00
17260;BME280;8746;49.230;9.220;2024-03-02T10:12:10;98716.72;;;11.18;100.00
17260;BME280;8746;49.230;9.220;2024-03-02T10:14:37;98710.34;;;11.77;94.13
17260;BME280;8746;49.230;9.220;2024-03-02T10:17:05;98707.13;;;12.13;91.39
17260;BME280;8746;49.230;9.220;2024-03-02T10:19:31;98706.56;;;12.61;87.48
17260;BME280;8746;49.230;9.220;2024-03-02T10:22:04;98700.09;;;12.65;83.37
17260;BME280;8746;49.230;9.220;2024-03-02T10:24:44;98692.63;;;13.22;81.44
17260;BME280;8746;49.230;9.220;2024-03-02T10:27:23;98684.47;;;13.62;80.29
17260;BME280;8746;49.230;9.220;2024-03-02T10:29:49;98686.16;;;13.39;81.86
17260;BME280;8746;49.230;9.220;2024-03-02T10:32:15;98690.47;;;13.53;78.82
17260;BME280;8746;49.230;9.220;2024-03-02T10:34:42;98683.34;;;14.38;75.11
17260;BME280;8746;49.230;9.220;2024-03-02T10:37:08;98687.09;;;14.47;72.44
17260;BME280;8746;49.230;9.220;2024-03-02T10:39:35;98683.91;;;15.11;70.40
17260;BME280;8746;49.230;9.220;2024-03-02T10:42:05;98677.97;;;15.30;71.99
17260;BME280;8746;49.230;9.220;2024-03-02T10:44:31;98676.00;;;14.64;68.46
17260;BME280;8746;49.230;9.220;2024-03-02T10:47:00;98673.66;;;15.06;67.16
17260;BME280;8746;49.230;9.220;2024-03-02T10:49:26;98667.34;;;15.30;67.82
17260;BME280;8746;49.230;9.220;2024-03-02T10:51:51;98671.13;;;14.82;68.01
17260;BME280;8746;49.230;9.220;2024-03-02T10:54:17;98662.91;;;14.97;64.56
17260;BME280;8746;49.230;9.220;2024-03-02T10:56:44;98662.91;;;14.74;67.97
17260;BME280;8746;49.230;9.220;2024-03-02T10:59:33;98652.19;;;15.65;66.27
17260;BME280;8746;49.230;9.220;2024-03-02T11:02:00;98651.56;;;14.83;66.05
17260;BME280;8746;49.230;9.220;2024-03-02T11:04:28;98648.13;;;15.38;65.83
17260;BME280;8746;49.230;9.220;2024-03-02T11:07:06;98648.41;;;15.01;65.47
17260;BME280;8746;49.230;9.220;2024-03-02T11:09:33;98646.69;;;14.54;67.55
17260;BME280;8746;49.230;9.220;2024-03-02T11:12:06;98631.22;;;15.39;64.76
17260;BME280;8746;49.230;9.220;2024-03-02T11:14:38;98637.31;;;14.96;64.87
17260;BME280;8746;49.230;9.220;2024-03-02T11:17:05;98632.09;;;15.61;63.08
17260;BME280;8746;49.230;9.220;2024-03-02T11:19:32;98633.38;;;15.34;61.98
17260;BME280;8746;49.230;9.220;2024-03-02T11:21:59;98633.19;;;15.14;62.39
17260;BME280;8746;49.230;9.220;2024-03-02T11:27:07;98631.63;;;16.21;60.77
17260;BME280;8746;49.230;9.220;2024-03-02T11:32:21;98620.28;;;15.65;59.99
17260;BME280;8746;49.230;9.220;2024-03-02T11:34:48;98621.31;;;14.16;64.61
17260;BME280;8746;49.230;9.220;2024-03-02T11:37:15;98615.59;;;15.02;62.89
17260;BME280;8746;49.230;9.220;2024-03-02T11:39:43;98620.28;;;14.98;62.18
17260;BME280;8746;49.230;9.220;2024-03-02T11:42:09;98612.31;;;15.21;62.81
17260;BME280;8746;49.230;9.220;2024-03-02T11:44:36;98607.88;;;14.65;65.41
17260;BME280;8746;49.230;9.220;2024-03-02T11:47:06;98599.88;;;14.19;65.20
17260;BME280;8746;49.230;9.220;2024-03-02T11:49:40;98599.13;;;14.06;67.53
17260;BME280;8746;49.230;9.220;2024-03-02T11:52:07;98595.38;;;13.97;68.81
17260;BME280;8746;49.230;9.220;2024-03-02T11:54:33;98585.72;;;14.07;68.20
17260;BME280;8746;49.230;9.220;2024-03-02T11:57:02;98581.31;;;13.48;67.81
17260;BME280;8746;49.230;9.220;2024-03-02T11:59:31;98572.09;;;13.65;69.99
17260;BME280;8746;49.230;9.220;2024-03-02T12:01:58;98567.19;;;13.60;67.90
17260;BME280;8746;49.230;9.220;2024-03-02T12:04:23;98564.69;;;13.82;68.78
17260;BME280;8746;49.230;9.220;2024-03-02T12:06:59;98553.88;;;13.49;67.08
17260;BME280;8746;49.230;9.220;2024-03-02T12:09:28;98548.41;;;13.75;66.14
17260;BME280;8746;49.230;9.220;2024-03-02T12:12:07;98548.94;;;13.91;66.37
17260;BME280;8746;49.230;9.220;2024-03-02T12:14:33;98542.16;;;13.76;66.51
17260;BME280;8746;49.230;9.220;2024-03-02T12:16:59;98533.22;;;13.66;68.16
17260;BME280;8746;49.230;9.220;2024-03-02T12:19:29;98531.03;;;13.59;65.84
17260;BME280;8746;49.230;9.220;2024-03-02T12:21:56;98541.72;;;13.58;65.58
17260;BME280;8746;49.230;9.220;2024-03-02T12:24:22;98533.56;;;13.61;66.50
17260;BME280;8746;49.230;9.220;2024-03-02T12:26:50;98541.84;;;13.56;63.84
17260;BME280;8746;49.230;9.220;2024-03-02T12:29:16;98535.38;;;13.60;65.68
17260;BME280;8746;49.230;9.220;2024-03-02T12:31:44;98529.06;;;13.50;64.67
17260;BME280;8746;49.230;9.220;2024-03-02T12:34:17;98517.03;;;13.46;65.79
17260;BME280;8746;49.230;9.220;2024-03-02T12:36:43;98512.88;;;13.42;65.37
17260;BME280;8746;49.230;9.220;2024-03-02T12:39:09;98504.94;;;13.42;67.10
17260;BME280;8746;49.230;9.220;2024-03-02T12:41:38;98507.94;;;13.73;66.85
17260;BME280;8746;49.230;9.220;2024-03-02T12:44:04;98506.13;;;13.85;65.64
17260;BME280;8746;49.230;9.220;2024-03-02T12:46:31;98505.66;;;13.79;63.27
17260;BME280;8746;49.230;9.220;2024-03-02T12:48:57;98508.19;;;13.81;63.82
17260;BME280;8746;49.230;9.220;2024-03-02T12:51:24;98506.09;;;13.62;65.71
17260;BME280;8746;49.230;9.220;2024-03-02T12:53:54;98499.41;;;13.81;65.80
17260;BME280;8746;49.230;9.220;2024-03-02T12:56:20;98500.97;;;13.94;65.04
17260;BME280;8746;49.230;9.220;2024-03-02T12:58:45;98503.41;;;13.98;64.54
17260;BME280;8746;49.230;9.220;2024-03-02T13:01:10;98498.56;;;13.91;66.05
17260;BME280;8746;49.230;9.220;2024-03-02T13:03:39;98493.41;;;13.90;66.12
17260;BME280;8746;49.230;9.220;2024-03-02T13:06:06;98494.00;;;13.93;66.57
17260;BME280;8746;49.230;9.220;2024-03-02T13:08:32;98499.78;;;13.99;66.68
17260;BME280;8746;49.230;9.220;2024-03-02T13:10:58;98491.22;;;14.06;65.14